Time;durP1;ratioP1;P1;durP2;ratioP2;P2;SDS_P1;SDS_P2;PMS_P1;PMS_P2;Temp;Humidity;BMP_temperature;BMP_pressure;BME280_temperature;BME280_humidity;BME280_pressure;Samples;Min_cycle;Max_cycle;Signal;HPM_P1;HPM_P2
2022/01/06 00:01:13;;;;;;;19.65;3.80;;;4.30;99.90;;;;;;5071661;28;20036;-87
2022/01/06 00:03:39;;;;;;;15.55;3.67;;;4.20;99.90;;;;;;5082676;28;20494;-87
2022/01/06 00:06:08;;;;;;;18.65;4.40;;;4.30;99.90;;;;;;5062914;28;20060;-87
2022/01/06 00:08:36;;;;;;;20.75;3.88;;;4.30;99.90;;;;;;5088485;28;20039;-88
2022/01/06 00:11:06;;;;;;;13.07;4.00;;;4.30;99.90;;;;;;5056223;28;20035;-87
2022/01/06 00:14:00;;;;;;;;;;;;;;;;;;;;;
2022/01/06 00:16:38;;;;;;;13.15;3.80;;;4.30;99.90;;;;;;5067158;28;20028;-86
2022/01/06 00:24:24;;;;;;;10.02;3.08;;;4.30;99.90;;;;;;5068489;28;20102;-88
2022/01/06 00:26:54;;;;;;;14.52;2.80;;;4.30;99.90;;;;;;5075020;28;20132;-87
2022/01/06 00:29:25;;;;;;;13.63;3.22;;;4.30;99.90;;;;;;5074632;28;20024;-87
2022/01/06 00:31:56;;;;;;;10.00;2.83;;;4.30;99.90;;;;;;5080836;28;20012;-87
2022/01/06 00:34:24;;;;;;;11.38;3.08;;;4.30;99.90;;;;;;5082817;28;20033;-87
2022/01/06 00:36:50;;;;;;;15.02;3.22;;;4.30;99.90;;;;;;5086501;28;20033;-82
2022/01/06 00:39:16;;;;;;;13.60;3.67;;;4.30;99.90;;;;;;5076610;28;20032;-87
2022/01/06 00:41:42;;;;;;;13.55;3.30;;;4.30;99.90;;;;;;5072683;28;20031;-87
2022/01/06 00:44:08;;;;;;;14.75;3.20;;;4.30;99.90;;;;;;5076147;28;20183;-87
2022/01/06 00:46:37;;;;;;;12.85;3.22;;;4.40;99.90;;;;;;5073412;28;20021;-88
2022/01/06 00:49:06;;;;;;;18.35;3.60;;;4.30;99.90;;;;;;5078844;28;20056;-87
2022/01/06 00:51:36;;;;;;;12.50;2.90;;;4.30;99.90;;;;;;5083499;28;20119;-87
2022/01/06 00:54:04;;;;;;;17.25;2.88;;;4.40;99.90;;;;;;5061429;28;20028;-88
2022/01/06 00:56:33;;;;;;;15.68;3.25;;;4.30;99.90;;;;;;5053906;28;20030;-87
2022/01/06 00:59:01;;;;;;;15.23;3.58;;;4.30;99.90;;;;;;5054353;28;20025;-88
2022/01/06 01:01:30;;;;;;;12.45;3.05;;;4.30;99.90;;;;;;5046999;28;20039;-86
2022/01/06 01:04:04;;;;;;;14.73;3.17;;;4.30;99.90;;;;;;5065701;28;20025;-86
2022/01/06 01:06:40;;;;;;;14.07;3.22;;;4.30;99.90;;;;;;5071916;28;20032;-87
2022/01/06 01:09:06;;;;;;;14.23;3.60;;;4.30;99.90;;;;;;5070064;28;20029;-87
2022/01/06 01:11:32;;;;;;;10.88;2.75;;;4.30;99.90;;;;;;5086771;28;20544;-86
2022/01/06 01:14:16;;;;;;;15.00;3.45;;;4.30;99.90;;;;;;5060723;28;20392;-86
2022/01/06 01:16:50;;;;;;;13.18;2.83;;;4.30;99.90;;;;;;5069697;28;20032;-87
2022/01/06 01:19:18;;;;;;;14.60;3.17;;;4.20;99.90;;;;;;5069585;28;20032;-87
2022/01/06 01:22:04;;;;;;;13.63;2.95;;;4.30;99.90;;;;;;5047453;28;20032;-88
2022/01/06 01:24:33;;;;;;;9.07;2.83;;;4.30;99.90;;;;;;5082122;28;20028;-87
2022/01/06 01:26:59;;;;;;;12.05;2.72;;;4.20;99.90;;;;;;5073279;28;20035;-87
2022/01/06 01:29:26;;;;;;;13.50;3.00;;;4.20;99.90;;;;;;5070646;28;20013;-87
2022/01/06 01:31:57;;;;;;;10.63;2.30;;;4.20;99.90;;;;;;5064252;28;20029;-87
2022/01/06 01:34:28;;;;;;;14.50;3.45;;;4.10;99.90;;;;;;5064350;28;20036;-87
2022/01/06 01:36:55;;;;;;;16.70;3.13;;;4.10;99.90;;;;;;5042260;28;20047;-88
2022/01/06 01:39:24;;;;;;;11.73;2.55;;;4.10;99.90;;;;;;5070317;28;20078;-87
2022/01/06 01:41:58;;;;;;;14.75;2.80;;;4.00;99.90;;;;;;5060384;28;20170;-87
2022/01/06 01:44:33;;;;;;;13.32;2.75;;;4.00;99.90;;;;;;5056908;28;20032;-87
2022/01/06 01:47:02;;;;;;;9.98;2.40;;;4.00;99.90;;;;;;5041514;28;20111;-87
2022/01/06 01:49:50;;;;;;;12.23;2.88;;;4.00;99.90;;;;;;5073387;28;20030;-87
2022/01/06 01:52:33;;;;;;;11.23;3.15;;;3.90;99.90;;;;;;5059268;28;20063;-87
2022/01/06 01:55:10;;;;;;;12.27;2.83;;;3.90;99.90;;;;;;5097175;28;20027;-88
2022/01/06 01:57:48;;;;;;;8.52;2.45;;;3.90;99.90;;;;;;5094695;28;20013;-87
2022/01/06 02:00:17;;;;;;;13.27;2.72;;;3.90;99.90;;;;;;5097550;28;20005;-89
2022/01/06 02:02:46;;;;;;;12.88;3.10;;;3.90;99.90;;;;;;5094242;28;20040;-88
2022/01/06 02:05:24;;;;;;;12.55;2.47;;;3.90;99.90;;;;;;5059239;28;20032;-88
2022/01/06 02:07:50;;;;;;;12.70;2.67;;;3.80;99.90;;;;;;5070613;28;20040;-87
2022/01/06 02:10:19;;;;;;;11.02;2.97;;;3.90;99.90;;;;;;5069251;28;20024;-87
2022/01/06 02:12:45;;;;;;;15.13;3.38;;;3.90;99.90;;;;;;5068807;28;20146;-87
2022/01/06 02:15:18;;;;;;;12.43;3.05;;;3.90;99.90;;;;;;5054569;28;20483;-86
2022/01/06 02:17:47;;;;;;;12.55;2.72;;;3.80;99.90;;;;;;5052390;28;20025;-87
2022/01/06 02:20:18;;;;;;;15.05;2.45;;;3.90;99.90;;;;;;5052450;28;20021;-87
2022/01/06 02:22:54;;;;;;;16.40;3.08;;;3.80;99.90;;;;;;5052877;28;20107;-86
2022/01/06 02:25:41;;;;;;;;;;;;;;;;;;;;;
2022/01/06 02:28:10;;;;;;;9.32;1.90;;;3.80;99.90;;;;;;5056370;28;20025;-87
2022/01/06 02:30:43;;;;;;;10.32;2.50;;;3.80;99.90;;;;;;5041593;28;20025;-86
2022/01/06 02:33:19;;;;;;;9.82;2.60;;;3.70;99.90;;;;;;5055814;28;20036;-88
2022/01/06 02:35:48;;;;;;;9.13;2.15;;;3.70;99.90;;;;;;5061049;28;20041;-87
2022/01/06 02:38:18;;;;;;;8.43;2.20;;;3.70;99.90;;;;;;5057727;28;20125;-88
2022/01/06 02:40:52;;;;;;;8.13;2.08;;;3.70;99.90;;;;;;5053586;28;20052;-87
2022/01/06 02:43:24;;;;;;;9.43;2.30;;;3.60;99.90;;;;;;5056081;28;20017;-87
2022/01/06 02:45:57;;;;;;;9.57;2.65;;;3.60;99.90;;;;;;5073006;28;20025;-87
2022/01/06 02:48:33;;;;;;;11.68;2.60;;;3.60;99.90;;;;;;5072166;28;20033;-87
2022/01/06 02:51:09;;;;;;;;;;;;;;;;;;;;;
2022/01/06 02:53:37;;;;;;;15.45;2.50;;;3.50;99.90;;;;;;5046664;28;20048;-87
2022/01/06 02:56:03;;;;;;;13.75;2.80;;;3.50;99.90;;;;;;5072946;28;20491;-87
2022/01/06 02:58:31;;;;;;;11.77;2.67;;;3.50;99.90;;;;;;5054872;28;20418;-87
2022/01/06 03:01:07;;;;;;;10.80;2.45;;;3.40;99.90;;;;;;5045686;28;20032;-86
2022/01/06 03:03:33;;;;;;;8.30;2.65;;;3.40;99.90;;;;;;5073559;28;20120;-86
2022/01/06 03:06:04;;;;;;;10.23;2.78;;;3.40;99.90;;;;;;5070814;28;20108;-87
2022/01/06 03:08:39;;;;;;;11.10;2.88;;;3.40;99.90;;;;;;5072522;28;20465;-86
2022/01/06 03:11:07;;;;;;;13.63;2.70;;;3.40;99.90;;;;;;5072700;28;20032;-87
2022/01/06 03:13:36;;;;;;;15.02;2.63;;;3.40;99.90;;;;;;5072388;28;20044;-87
2022/01/06 03:16:07;;;;;;;15.90;2.78;;;3.40;99.90;;;;;;5072670;28;20028;-87
2022/01/06 03:18:33;;;;;;;12.38;2.65;;;3.40;99.90;;;;;;5073245;28;20064;-86
2022/01/06 03:20:59;;;;;;;13.63;3.03;;;3.40;99.90;;;;;;5073510;28;20024;-86
2022/01/06 03:23:25;;;;;;;11.93;2.58;;;3.40;99.90;;;;;;5096435;28;20016;-85
2022/01/06 03:25:53;;;;;;;15.15;3.03;;;3.40;99.90;;;;;;5079998;28;20025;-87
2022/01/06 03:28:26;;;;;;;11.55;2.78;;;3.40;99.90;;;;;;5101435;28;20112;-87
2022/01/06 03:30:52;;;;;;;9.98;2.30;;;3.40;99.90;;;;;;5076395;28;20491;-86
2022/01/06 03:33:21;;;;;;;11.70;2.17;;;3.40;99.90;;;;;;5073063;28;20021;-87
2022/01/06 03:35:49;;;;;;;12.70;3.35;;;3.40;99.90;;;;;;5070710;28;20042;-86
2022/01/06 03:38:15;;;;;;;9.32;2.30;;;3.40;99.90;;;;;;5068013;28;20017;-86
2022/01/06 03:40:41;;;;;;;7.93;1.92;;;3.30;99.90;;;;;;5071345;28;20025;-87
2022/01/06 03:43:09;;;;;;;8.95;2.25;;;3.30;99.90;;;;;;5079582;28;20528;-86
2022/01/06 03:45:35;;;;;;;11.75;2.20;;;3.30;99.90;;;;;;5058474;28;20025;-87
2022/01/06 03:48:03;;;;;;;16.05;2.80;;;3.30;99.90;;;;;;5054628;28;20086;-87
2022/01/06 03:50:33;;;;;;;11.32;2.42;;;3.30;99.90;;;;;;5070346;28;20392;-88
2022/01/06 03:52:59;;;;;;;12.30;3.03;;;3.30;99.90;;;;;;5073396;28;20031;-87
2022/01/06 03:55:36;;;;;;;9.88;2.83;;;3.20;99.90;;;;;;5075057;28;20025;-87
2022/01/06 03:58:03;;;;;;;9.40;2.55;;;3.20;99.90;;;;;;5074171;28;20020;-87
2022/01/06 04:00:31;;;;;;;13.95;2.63;;;3.20;99.90;;;;;;5072412;28;20031;-87
2022/01/06 04:02:57;;;;;;;9.35;2.30;;;3.20;99.90;;;;;;5064304;28;20055;-87
2022/01/06 04:05:25;;;;;;;9.82;2.70;;;3.20;99.90;;;;;;5074460;28;20029;-87
2022/01/06 04:07:57;;;;;;;8.25;2.30;;;3.20;99.90;;;;;;5056069;28;20381;-88
2022/01/06 04:10:27;;;;;;;12.25;2.20;;;3.20;99.90;;;;;;5055747;28;20086;-86
2022/01/06 04:13:04;;;;;;;9.82;2.05;;;3.10;99.90;;;;;;5066443;28;20397;-87
2022/01/06 04:15:32;;;;;;;9.90;2.40;;;3.10;99.90;;;;;;5074642;28;20448;-87
2022/01/06 04:17:58;;;;;;;7.07;2.08;;;3.10;99.90;;;;;;5060844;28;20017;-87
2022/01/06 04:20:29;;;;;;;10.38;2.40;;;3.00;99.90;;;;;;5078264;28;20032;-86
2022/01/06 04:22:55;;;;;;;8.65;1.75;;;3.00;99.90;;;;;;5071262;28;20404;-87
2022/01/06 04:25:28;;;;;;;10.75;2.33;;;3.00;99.90;;;;;;5082243;28;20025;-87
2022/01/06 04:27:54;;;;;;;7.65;2.15;;;3.00;99.90;;;;;;5074535;28;20025;-86
2022/01/06 04:30:22;;;;;;;10.30;2.30;;;3.00;99.90;;;;;;5074774;28;20040;-87
2022/01/06 04:32:48;;;;;;;7.32;2.33;;;2.90;99.90;;;;;;5037654;28;20397;-87
2022/01/06 04:35:29;;;;;;;;;;;;;;;;;;;;;
2022/01/06 04:37:55;;;;;;;7.53;1.65;;;2.90;99.90;;;;;;5065832;28;20459;-87
2022/01/06 04:40:23;;;;;;;10.05;2.53;;;2.80;99.90;;;;;;5062318;28;20116;-86
2022/01/06 04:42:49;;;;;;;11.07;2.33;;;2.80;99.90;;;;;;5055314;28;20029;-87
2022/01/06 04:45:15;;;;;;;8.80;1.67;;;2.80;99.90;;;;;;5072290;28;20056;-87
2022/01/06 04:47:44;;;;;;;9.00;2.60;;;2.80;99.90;;;;;;5061855;28;20020;-88
2022/01/06 04:50:12;;;;;;;9.18;2.30;;;2.70;99.90;;;;;;5079000;28;20013;-87
2022/01/06 04:52:47;;;;;;;8.48;1.98;;;2.70;99.90;;;;;;5071715;28;20041;-86
2022/01/06 04:55:18;;;;;;;6.03;1.85;;;2.70;99.90;;;;;;5058086;28;20123;-87
2022/01/06 04:57:44;;;;;;;4.70;1.65;;;2.60;99.90;;;;;;5055566;28;20090;-87
2022/01/06 05:00:19;;;;;;;6.38;1.58;;;2.60;99.90;;;;;;5070873;28;20025;-87
2022/01/06 05:02:50;;;;;;;9.52;2.35;;;2.60;99.90;;;;;;5054565;28;20029;-87
2022/01/06 05:05:39;;;;;;;8.93;2.15;;;2.60;99.90;;;;;;5080023;28;20135;-87
2022/01/06 05:08:07;;;;;;;6.35;1.58;;;2.60;99.90;;;;;;5053514;28;20072;-88
2022/01/06 05:10:42;;;;;;;9.70;2.15;;;2.50;99.90;;;;;;5079621;28;20081;-87
2022/01/06 05:13:10;;;;;;;7.43;1.75;;;2.50;99.90;;;;;;5055161;28;20049;-87
2022/01/06 05:15:41;;;;;;;10.43;2.80;;;2.50;99.90;;;;;;5035070;28;20064;-87
2022/01/06 05:18:07;;;;;;;7.97;2.17;;;2.50;99.90;;;;;;5033280;28;20042;-87
2022/01/06 05:20:42;;;;;;;6.95;1.92;;;2.50;99.90;;;;;;5033415;28;20033;-87
2022/01/06 05:23:09;;;;;;;9.85;2.03;;;2.40;99.90;;;;;;5056376;28;20056;-88
2022/01/06 05:25:44;;;;;;;6.28;2.30;;;2.40;99.90;;;;;;5073154;28;20030;-86
2022/01/06 05:28:20;;;;;;;8.50;2.38;;;2.40;99.90;;;;;;5047574;28;20381;-87
2022/01/06 05:30:55;;;;;;;13.77;2.55;;;2.40;99.90;;;;;;5049153;28;22007;-86
2022/01/06 05:33:40;;;;;;;6.25;1.80;;;2.40;99.90;;;;;;5051235;28;20492;-86
2022/01/06 05:36:08;;;;;;;10.95;2.53;;;2.30;99.90;;;;;;5052934;28;20021;-86
2022/01/06 05:38:36;;;;;;;7.43;1.92;;;2.40;99.90;;;;;;5056571;28;20041;-86
2022/01/06 05:41:05;;;;;;;11.68;2.38;;;2.30;99.90;;;;;;5039884;28;20029;-85
2022/01/06 05:43:31;;;;;;;11.13;2.15;;;2.30;99.90;;;;;;5044598;28;20026;-86
2022/01/06 05:46:00;;;;;;;9.07;2.38;;;2.30;99.90;;;;;;5047293;28;20032;-86
2022/01/06 05:48:35;;;;;;;8.88;2.30;;;2.30;99.90;;;;;;5052513;28;20025;-86
2022/01/06 05:51:13;;;;;;;;;;;;;;;;;;;;;
2022/01/06 05:53:39;;;;;;;8.95;2.63;;;2.20;99.90;;;;;;5034094;28;20033;-86
2022/01/06 05:56:07;;;;;;;7.28;2.28;;;2.30;99.90;;;;;;5049621;28;20470;-87
2022/01/06 05:58:37;;;;;;;7.40;2.05;;;2.30;99.90;;;;;;5052686;28;20057;-87
2022/01/06 06:01:05;;;;;;;7.45;1.75;;;2.30;99.90;;;;;;5078240;28;20039;-87
2022/01/06 06:03:41;;;;;;;13.13;2.83;;;2.30;99.90;;;;;;5063026;28;20028;-88
2022/01/06 06:06:09;;;;;;;10.57;2.38;;;2.20;99.90;;;;;;5088516;28;20048;-88
2022/01/06 06:08:40;;;;;;;11.27;2.40;;;2.20;99.90;;;;;;5097035;28;20021;-88
2022/01/06 06:11:08;;;;;;;7.50;1.75;;;2.20;99.90;;;;;;5090608;28;20054;-87
2022/01/06 06:13:35;;;;;;;9.30;2.15;;;2.20;99.90;;;;;;5088662;28;20096;-86
2022/01/06 06:16:01;;;;;;;8.48;2.30;;;2.20;99.90;;;;;;5066377;28;20108;-88
2022/01/06 06:18:47;;;;;;;6.75;1.80;;;2.20;99.90;;;;;;5054756;28;20116;-89
2022/01/06 06:21:13;;;;;;;12.48;2.42;;;2.20;99.90;;;;;;5063134;28;20048;-87
2022/01/06 06:23:42;;;;;;;7.57;2.35;;;2.20;99.90;;;;;;5065378;28;20024;-88
2022/01/06 06:26:11;;;;;;;7.05;2.15;;;2.20;99.90;;;;;;5058784;28;20025;-88
2022/01/06 06:28:48;;;;;;;12.05;2.58;;;2.20;99.90;;;;;;5056753;28;20024;-88
2022/01/06 06:31:14;;;;;;;10.57;2.45;;;2.20;99.90;;;;;;5072571;28;20041;-88
2022/01/06 06:33:48;;;;;;;5.85;1.60;;;2.20;99.90;;;;;;5069213;28;20079;-89
2022/01/06 06:36:14;;;;;;;7.38;1.92;;;2.20;99.90;;;;;;5068178;28;20029;-89
2022/01/06 06:38:40;;;;;;;6.85;1.95;;;2.20;99.90;;;;;;5069986;28;20036;-87
2022/01/06 06:41:05;;;;;;;11.32;2.20;;;2.20;99.90;;;;;;5068739;28;20056;-86
2022/01/06 06:43:31;;;;;;;7.78;1.92;;;2.20;99.90;;;;;;5053575;28;20078;-86
2022/01/06 06:45:57;;;;;;;8.07;2.00;;;2.20;99.90;;;;;;5071024;28;20472;-87
2022/01/06 06:48:24;;;;;;;5.18;2.03;;;2.20;99.90;;;;;;5056532;28;20028;-86
2022/01/06 06:50:53;;;;;;;10.52;4.10;;;2.20;99.90;;;;;;5066552;28;20040;-87
2022/01/06 06:53:21;;;;;;;17.65;6.40;;;2.20;99.90;;;;;;5059890;28;20111;-88
2022/01/06 06:55:50;;;;;;;13.23;4.22;;;2.20;99.90;;;;;;5071553;28;20032;-87
2022/01/06 06:58:19;;;;;;;13.27;3.75;;;2.20;99.90;;;;;;5071993;28;20526;-85
2022/01/06 07:00:49;;;;;;;12.13;3.03;;;2.20;99.90;;;;;;5025700;28;20124;-86
2022/01/06 07:03:15;;;;;;;11.55;2.95;;;2.30;99.90;;;;;;5053247;28;20068;-86
2022/01/06 07:05:40;;;;;;;10.02;2.47;;;2.30;99.90;;;;;;5077774;28;20376;-85
2022/01/06 07:08:08;;;;;;;8.82;2.13;;;2.30;99.90;;;;;;5074396;28;20028;-88
2022/01/06 07:10:34;;;;;;;11.02;2.45;;;2.30;99.90;;;;;;5074078;28;20036;-87
2022/01/06 07:13:09;;;;;;;9.63;2.42;;;2.30;99.90;;;;;;5065967;28;20059;-87
2022/01/06 07:15:42;;;;;;;6.78;2.00;;;2.30;99.90;;;;;;5044082;28;20036;-88
2022/01/06 07:18:08;;;;;;;9.35;2.20;;;2.30;99.90;;;;;;5036269;28;20026;-88
2022/01/06 07:20:37;;;;;;;11.85;1.83;;;2.30;99.90;;;;;;5043788;28;20444;-90
2022/01/06 07:23:21;;;;;;;7.95;2.80;;;2.30;99.90;;;;;;5075120;28;20576;-89
2022/01/06 07:25:47;;;;;;;7.75;2.20;;;2.20;99.90;;;;;;5069155;28;20052;-89
2022/01/06 07:28:15;;;;;;;7.45;1.98;;;2.20;99.90;;;;;;5074143;28;20021;-88
2022/01/06 07:30:51;;;;;;;10.10;2.25;;;2.20;99.90;;;;;;5075879;28;20025;-90
2022/01/06 07:33:36;;;;;;;12.43;2.45;;;2.20;99.90;;;;;;5077745;28;20040;-88
2022/01/06 07:36:07;;;;;;;12.82;2.55;;;2.10;99.90;;;;;;5095176;28;20155;-88
2022/01/06 07:38:33;;;;;;;5.18;1.77;;;2.10;99.90;;;;;;5084843;28;20029;-91
2022/01/06 07:41:06;;;;;;;10.07;2.00;;;2.10;99.90;;;;;;5072977;28;20052;-89
2022/01/06 07:43:35;;;;;;;7.47;1.98;;;2.10;99.90;;;;;;5079235;28;20027;-88
2022/01/06 07:46:01;;;;;;;11.57;2.55;;;2.00;99.90;;;;;;5073387;28;20025;-91
2022/01/06 07:48:36;;;;;;;7.90;2.75;;;2.00;99.90;;;;;;5066552;28;20029;-90
2022/01/06 07:51:21;;;;;;;10.43;2.60;;;2.00;99.90;;;;;;5072758;28;20086;-93
2022/01/06 07:53:47;;;;;;;12.05;3.15;;;2.00;99.90;;;;;;5074536;28;20028;-87
2022/01/06 07:56:13;;;;;;;8.48;3.05;;;2.00;99.90;;;;;;5074732;28;20464;-88
2022/01/06 07:58:52;;;;;;;7.68;2.80;;;2.00;99.90;;;;;;5074748;28;20021;-89
2022/01/06 08:01:21;;;;;;;8.40;2.05;;;2.00;99.90;;;;;;5031157;28;20091;-88
2022/01/06 08:04:10;;;;;;;9.02;2.22;;;2.00;99.90;;;;;;5054263;28;20104;-87
2022/01/06 08:06:38;;;;;;;7.07;1.77;;;2.00;99.90;;;;;;5054876;28;20469;-87
2022/01/06 08:09:04;;;;;;;8.10;2.28;;;2.00;99.90;;;;;;5055612;28;20469;-87
2022/01/06 08:11:30;;;;;;;4.95;1.98;;;2.00;99.90;;;;;;5054625;28;20025;-88
2022/01/06 08:14:23;;;;;;;8.77;2.30;;;2.00;99.90;;;;;;5055386;28;20055;-87
2022/01/06 08:16:49;;;;;;;8.73;2.03;;;2.00;99.90;;;;;;5055125;28;20025;-88
2022/01/06 08:19:16;;;;;;;7.65;2.08;;;2.10;99.90;;;;;;5070724;28;20024;-87
2022/01/06 08:21:44;;;;;;;7.57;2.33;;;2.00;99.90;;;;;;5071470;28;20060;-89
2022/01/06 08:24:13;;;;;;;7.85;2.10;;;2.00;99.90;;;;;;5072090;28;20028;-91
2022/01/06 08:26:41;;;;;;;9.13;2.80;;;2.00;99.90;;;;;;5056248;28;20031;-87
2022/01/06 08:29:12;;;;;;;6.72;2.10;;;2.10;99.90;;;;;;5053407;28;20025;-88
2022/01/06 08:31:38;;;;;;;6.75;2.10;;;2.00;99.90;;;;;;5037331;28;20393;-86
2022/01/06 08:34:03;;;;;;;6.63;2.17;;;2.10;99.90;;;;;;5055476;28;20025;-88
2022/01/06 08:36:40;;;;;;;6.05;1.85;;;2.10;99.90;;;;;;5053109;28;20025;-87
2022/01/06 08:39:06;;;;;;;7.75;2.40;;;2.10;99.90;;;;;;5052602;28;20010;-86
2022/01/06 08:41:42;;;;;;;10.57;2.50;;;2.10;99.90;;;;;;5052649;28;20160;-87
2022/01/06 08:44:07;;;;;;;7.50;1.98;;;2.10;99.90;;;;;;5038148;28;20060;-87
2022/01/06 08:46:33;;;;;;;8.43;2.58;;;2.10;99.90;;;;;;5053924;28;20059;-86
2022/01/06 08:48:59;;;;;;;10.50;2.47;;;2.10;99.90;;;;;;5066052;28;20033;-90
2022/01/06 08:51:25;;;;;;;11.05;2.35;;;2.10;99.90;;;;;;5063071;28;20033;-91
2022/01/06 08:53:50;;;;;;;9.98;2.80;;;2.10;99.90;;;;;;5081786;28;20017;-91
2022/01/06 08:56:16;;;;;;;8.13;2.58;;;2.10;99.90;;;;;;5092393;28;20037;-88
2022/01/06 08:58:44;;;;;;;9.18;2.30;;;2.10;99.90;;;;;;5076661;28;20029;-85
2022/01/06 09:01:12;;;;;;;8.18;2.60;;;2.10;99.90;;;;;;5060076;28;20067;-88
2022/01/06 09:03:54;;;;;;;7.22;2.38;;;2.20;99.90;;;;;;5038178;28;20575;-87
2022/01/06 09:06:20;;;;;;;7.53;2.08;;;2.20;99.90;;;;;;5036946;28;20025;-87
2022/01/06 09:08:57;;;;;;;5.90;1.75;;;2.20;99.90;;;;;;5053771;28;20436;-88
2022/01/06 09:11:32;;;;;;;6.45;2.03;;;2.20;99.90;;;;;;5039525;28;20068;-88
2022/01/06 09:17:00;;;;;;;;;;;;;;;;;;;;;
2022/01/06 09:19:42;;;;;;;;;;;;;;;;;;;;;
2022/01/06 09:22:23;;;;;;;6.43;2.13;;;2.40;99.90;;;;;;5048953;28;20037;-89
2022/01/06 09:25:04;;;;;;;;;;;;;;;;;;;;;
2022/01/06 09:30:44;;;;;;;6.55;2.13;;;2.50;99.90;;;;;;5050769;28;20033;-89
2022/01/06 09:33:19;;;;;;;5.63;2.55;;;2.50;99.90;;;;;;5059585;28;20033;-89
2022/01/06 09:35:53;;;;;;;8.98;2.55;;;2.60;99.90;;;;;;5054175;28;20060;-89
2022/01/06 09:38:49;;;;;;;;;;;;;;;;;;;;;
2022/01/06 09:41:20;;;;;;;7.88;2.88;;;2.70;99.90;;;;;;5060151;28;20366;-88
2022/01/06 09:44:26;;;;;;;8.50;2.72;;;2.80;99.90;;;;;;5053055;28;20035;-88
2022/01/06 09:47:11;;;;;;;9.15;3.00;;;2.80;99.90;;;;;;5050088;28;20066;-90
2022/01/06 09:52:29;;;;;;;10.25;3.42;;;2.90;99.90;;;;;;5054661;28;20044;-88
2022/01/06 09:55:04;;;;;;;8.93;3.20;;;3.00;99.90;;;;;;5068299;28;20472;-89
2022/01/06 09:57:35;;;;;;;10.73;3.97;;;3.00;99.90;;;;;;5043978;28;20127;-88
2022/01/06 10:00:07;;;;;;;9.65;2.55;;;3.10;99.90;;;;;;5063455;28;20035;-89
2022/01/06 10:02:48;;;;;;;;;;;3.10;99.90;;;;;;5037062;28;20225;-88
2022/01/06 10:05:16;;;;;;;8.10;2.53;;;3.20;99.90;;;;;;5052167;28;20353;-88
2022/01/06 10:07:45;;;;;;;11.18;3.30;;;3.20;99.90;;;;;;5053487;28;20029;-88
2022/01/06 10:10:15;;;;;;;10.55;3.17;;;3.30;99.90;;;;;;5054168;28;20047;-87
2022/01/06 10:12:55;;;;;;;;;;;;;;;;;;;;;
2022/01/06 10:15:23;;;;;;;12.82;3.00;;;3.40;99.90;;;;;;5062300;28;20085;-88
2022/01/06 10:18:14;;;;;;;8.20;2.95;;;3.40;99.90;;;;;;5076985;28;20047;-87
2022/01/06 10:20:50;;;;;;;11.75;3.30;;;3.50;99.90;;;;;;5060879;28;20009;-89
2022/01/06 10:23:17;;;;;;;9.15;2.78;;;3.60;99.90;;;;;;5076730;28;20017;-89
2022/01/06 10:25:51;;;;;;;9.73;2.80;;;3.60;99.90;;;;;;5060647;28;20021;-89
2022/01/06 10:28:45;;;;;;;10.63;2.33;;;3.70;99.90;;;;;;5054664;28;20029;-89
2022/01/06 10:31:20;;;;;;;9.88;2.75;;;3.70;99.90;;;;;;5054188;28;20081;-88
2022/01/06 10:33:46;;;;;;;5.82;2.60;;;3.80;99.90;;;;;;5055406;28;20436;-88
2022/01/06 10:36:11;;;;;;;11.38;3.10;;;3.90;99.90;;;;;;5063105;28;20060;-87
2022/01/06 10:38:37;;;;;;;10.43;2.72;;;3.90;99.90;;;;;;5054405;28;20029;-88
2022/01/06 10:41:16;;;;;;;6.78;2.40;;;3.90;99.90;;;;;;5056155;28;20029;-87
2022/01/06 10:43:49;;;;;;;9.27;2.40;;;4.00;99.90;;;;;;5039937;28;20017;-87
2022/01/06 10:46:15;;;;;;;11.82;3.50;;;4.10;99.90;;;;;;5052205;28;20461;-87
2022/01/06 10:48:55;;;;;;;8.35;2.53;;;4.10;99.90;;;;;;5054133;28;20111;-87
2022/01/06 10:51:36;;;;;;;9.32;2.63;;;4.20;99.90;;;;;;5053771;28;20082;-87
2022/01/06 10:54:10;;;;;;;11.45;3.33;;;4.30;99.90;;;;;;5064867;28;20075;-88
2022/01/06 10:56:47;;;;;;;7.03;2.90;;;4.30;99.90;;;;;;5051413;28;20461;-88
2022/01/06 10:59:29;;;;;;;5.50;2.40;;;4.40;99.90;;;;;;5056088;28;20058;-89
2022/01/06 11:01:58;;;;;;;9.20;2.92;;;4.50;99.90;;;;;;5056890;28;20060;-87
2022/01/06 11:04:38;;;;;;;;;;;;;;;;;;;;;
2022/01/06 11:07:13;;;;;;;10.80;3.05;;;4.70;99.90;;;;;;5063003;28;20029;-87
2022/01/06 11:09:57;;;;;;;9.75;3.50;;;4.70;99.90;;;;;;5056879;28;20028;-88
2022/01/06 11:12:29;;;;;;;10.55;2.80;;;4.70;99.90;;;;;;5063786;28;20112;-86
2022/01/06 11:14:55;;;;;;;10.00;2.90;;;4.80;99.90;;;;;;5057717;28;20029;-86
2022/01/06 11:17:33;;;;;;;12.10;2.75;;;4.80;99.90;;;;;;5057853;28;20036;-90
2022/01/06 11:19:59;;;;;;;11.55;3.40;;;4.90;99.90;;;;;;5074900;28;20025;-90
2022/01/06 11:22:26;;;;;;;8.80;3.20;;;4.90;99.90;;;;;;5056860;28;20086;-86
2022/01/06 11:25:04;;;;;;;7.80;3.03;;;5.00;99.90;;;;;;5037856;28;20029;-89
2022/01/06 11:27:51;;;;;;;10.93;3.47;;;5.00;99.90;;;;;;5058408;28;20025;-89
2022/01/06 11:30:52;;;;;;;8.02;3.20;;;5.10;99.90;;;;;;5061063;28;20016;-89
2022/01/06 11:33:44;;;;;;;9.52;3.28;;;5.20;99.90;;;;;;5062886;28;20033;-90
2022/01/06 11:36:43;;;;;;;;;;;;;;;;;;;;;
2022/01/06 11:39:25;;;;;;;11.15;3.38;;;5.30;99.90;;;;;;5059292;28;20109;-88
2022/01/06 11:41:54;;;;;;;7.18;2.70;;;5.30;99.90;;;;;;5071409;28;20025;-86
2022/01/06 11:44:30;;;;;;;9.50;3.28;;;5.30;99.90;;;;;;5079426;28;20016;-87
2022/01/06 11:46:59;;;;;;;13.10;3.25;;;5.30;99.90;;;;;;5067496;28;20084;-86
2022/01/06 11:49:31;;;;;;;12.70;3.42;;;5.30;99.90;;;;;;5068905;28;20033;-85
2022/01/06 11:52:07;;;;;;;9.57;3.63;;;5.40;99.90;;;;;;5063538;28;20036;-87
2022/01/06 11:54:55;;;;;;;11.43;3.33;;;5.50;99.90;;;;;;5058081;28;20044;-88
2022/01/06 11:57:46;;;;;;;12.40;3.67;;;5.50;99.90;;;;;;5057392;28;20024;-86
2022/01/06 12:00:36;;;;;;;10.70;2.80;;;5.60;99.90;;;;;;5032834;28;20037;-86
2022/01/06 12:03:06;;;;;;;6.50;2.88;;;5.60;99.90;;;;;;5066662;28;20033;-87
2022/01/06 12:05:52;;;;;;;14.18;3.28;;;5.70;99.90;;;;;;5060080;28;20068;-88
2022/01/06 12:08:34;;;;;;;10.77;3.33;;;5.70;99.90;;;;;;5072984;28;20365;-88
2022/01/06 12:11:10;;;;;;;8.52;3.03;;;5.70;99.90;;;;;;5056258;28;20388;-88
2022/01/06 12:13:46;;;;;;;9.30;3.17;;;5.80;99.90;;;;;;5054826;28;20053;-86
2022/01/06 12:16:12;;;;;;;9.77;2.72;;;5.90;99.90;;;;;;5076635;28;20020;-86
2022/01/06 12:18:38;;;;;;;8.35;2.67;;;5.90;99.90;;;;;;5063443;28;20021;-88
2022/01/06 12:21:31;;;;;;;9.95;2.85;;;5.90;99.90;;;;;;5055920;28;20036;-89
2022/01/06 12:25:07;;;;;;;8.35;3.50;;;6.00;99.90;;;;;;5038444;28;20460;-89
2022/01/06 12:28:07;;;;;;;9.63;2.35;;;6.00;99.90;;;;;;5020835;28;20037;-90
2022/01/06 12:30:40;;;;;;;11.55;3.05;;;6.00;99.90;;;;;;5055335;28;20115;-89
2022/01/06 12:33:07;;;;;;;8.05;2.65;;;6.00;99.90;;;;;;5082092;28;20068;-88
2022/01/06 12:35:48;;;;;;;10.48;2.60;;;6.00;99.90;;;;;;5070795;28;20025;-88
2022/01/06 12:38:29;;;;;;;9.32;2.72;;;6.10;99.90;;;;;;5070566;28;20025;-89
2022/01/06 12:41:11;;;;;;;9.55;2.70;;;6.10;99.90;;;;;;5053449;28;20025;-89
2022/01/06 12:43:39;;;;;;;13.82;3.00;;;6.10;99.90;;;;;;5034232;28;20033;-88
2022/01/06 12:46:04;;;;;;;9.40;2.60;;;6.20;99.90;;;;;;5033725;28;20029;-86
2022/01/06 12:48:38;;;;;;;9.65;2.85;;;6.20;99.90;;;;;;5050079;28;20031;-86
2022/01/06 12:51:16;;;;;;;7.85;2.80;;;6.20;99.90;;;;;;5034877;28;20060;-87
2022/01/06 12:53:44;;;;;;;9.10;2.97;;;6.20;99.90;;;;;;5051234;28;20049;-86
2022/01/06 12:56:40;;;;;;;;;;;;;;;;;;;;;
2022/01/06 12:59:16;;;;;;;7.93;3.25;;;6.30;99.90;;;;;;5055035;28;20023;-87
2022/01/06 13:01:51;;;;;;;14.35;3.63;;;6.40;99.90;;;;;;5053511;28;20033;-87
2022/01/06 13:04:29;;;;;;;8.43;2.97;;;6.40;99.90;;;;;;5037513;28;20033;-86
2022/01/06 13:07:03;;;;;;;11.60;2.70;;;6.40;99.90;;;;;;5056023;28;20107;-87
2022/01/06 13:09:46;;;;;;;8.85;3.38;;;6.40;99.90;;;;;;5047612;28;20051;-88
2022/01/06 13:12:51;;;;;;;11.23;3.00;;;6.50;99.90;;;;;;5057794;28;20144;-88
2022/01/06 13:15:16;;;;;;;6.95;2.40;;;6.50;99.90;;;;;;5076986;28;20059;-86
2022/01/06 13:17:47;;;;;;;13.27;2.58;;;6.50;99.90;;;;;;5068434;28;20431;-86
2022/01/06 13:20:26;;;;;;;8.10;3.00;;;6.60;99.90;;;;;;5072896;28;20036;-84
2022/01/06 13:23:23;;;;;;;11.60;2.88;;;6.60;99.90;;;;;;5054127;28;20033;-85
2022/01/06 13:25:51;;;;;;;9.70;2.20;;;6.60;99.90;;;;;;5060721;28;20887;-85
2022/01/06 13:28:29;;;;;;;;;;;;;;;;;;;;;
2022/01/06 13:31:07;;;;;;;7.38;2.50;;;6.70;99.90;;;;;;5053357;28;20384;-86
2022/01/06 13:33:33;;;;;;;12.05;3.03;;;6.60;99.90;;;;;;5052515;28;20025;-87
2022/01/06 13:36:32;;;;;;;10.45;3.20;;;6.70;99.90;;;;;;5052639;28;20025;-87
2022/01/06 13:39:10;;;;;;;7.53;2.33;;;6.70;99.90;;;;;;5040348;28;20029;-87
2022/01/06 13:41:41;;;;;;;13.57;2.67;;;6.70;99.90;;;;;;5052452;28;20025;-87
2022/01/06 13:44:30;;;;;;;7.45;2.13;;;6.70;99.90;;;;;;5052524;28;20021;-86
2022/01/06 13:47:08;;;;;;;9.85;2.92;;;6.80;99.90;;;;;;5049109;28;20470;-86
2022/01/06 13:52:44;;;;;;;;;;;;;;;;;;;;;
2022/01/06 13:55:18;;;;;;;7.70;2.67;;;6.70;99.90;;;;;;5053298;28;20036;-87
2022/01/06 13:57:44;;;;;;;9.23;2.53;;;6.80;99.90;;;;;;5042744;28;20024;-87